Time;durP1;ratioP1;P1;durP2;ratioP2;P2;SDS_P1;SDS_P2;PMS_P1;PMS_P2;Temp;Humidity;BMP_temperature;BMP_pressure;BME280_temperature;BME280_humidity;BME280_pressure;Samples;Min_cycle;Max_cycle;Signal;HPM_P1;HPM_P2
2022/11/13 00:00:08;;;;;;;55.45;25.15;;;6.20;99.90;;;;;;4995781;28;20046;-83
2022/11/13 00:02:52;;;;;;;55.83;24.48;;;6.20;99.90;;;;;;4997762;28;20525;-83
2022/11/13 00:05:37;;;;;;;51.72;23.17;;;6.10;99.90;;;;;;4994177;28;20049;-83
2022/11/13 00:08:22;;;;;;;50.05;23.58;;;6.10;99.90;;;;;;4993559;28;20054;-83
2022/11/13 00:11:11;;;;;;;56.60;24.08;;;6.10;99.90;;;;;;4999012;28;20114;-82
2022/11/13 00:13:55;;;;;;;53.53;21.90;;;6.10;99.90;;;;;;4984194;28;20053;-82
2022/11/13 00:16:40;;;;;;;61.47;27.05;;;6.10;99.90;;;;;;4992289;28;20498;-82
2022/11/13 00:19:24;;;;;;;61.58;24.95;;;6.10;99.90;;;;;;4993374;28;20371;-82
2022/11/13 00:22:09;;;;;;;66.72;24.38;;;6.10;99.90;;;;;;4992761;28;20053;-82
2022/11/13 00:24:53;;;;;;;76.10;33.17;;;6.10;99.90;;;;;;4983642;28;20587;-81
2022/11/13 00:27:38;;;;;;;62.33;28.15;;;6.10;99.90;;;;;;4992092;28;20041;-82
2022/11/13 00:30:23;;;;;;;57.30;25.58;;;6.10;99.90;;;;;;4992513;28;20078;-82
2022/11/13 00:33:07;;;;;;;61.00;22.35;;;6.00;99.90;;;;;;4998030;28;20046;-83
2022/11/13 00:35:52;;;;;;;52.45;25.33;;;5.90;99.90;;;;;;4991418;28;20519;-83
2022/11/13 00:38:37;;;;;;;66.00;27.30;;;5.80;99.90;;;;;;4992608;28;20049;-84
2022/11/13 00:41:22;;;;;;;40.60;21.77;;;5.80;99.90;;;;;;4992388;28;20503;-83
2022/11/13 00:44:07;;;;;;;43.92;20.17;;;5.70;99.90;;;;;;4992379;28;20054;-83
2022/11/13 00:46:52;;;;;;;46.45;21.58;;;5.60;99.90;;;;;;4994275;28;20049;-82
2022/11/13 00:49:36;;;;;;;40.38;19.10;;;5.60;99.90;;;;;;4998951;28;20057;-82
2022/11/13 00:52:21;;;;;;;51.90;22.33;;;5.60;99.90;;;;;;4992515;28;20053;-84
2022/11/13 00:55:06;;;;;;;54.92;23.27;;;5.70;99.90;;;;;;4991854;28;20050;-85
2022/11/13 00:57:50;;;;;;;63.88;24.25;;;5.60;99.90;;;;;;4992774;28;20522;-83
2022/11/13 01:00:35;;;;;;;54.55;23.83;;;5.70;99.90;;;;;;4995870;28;20045;-83
2022/11/13 01:03:19;;;;;;;47.15;21.20;;;5.70;99.90;;;;;;4995861;28;20046;-83
2022/11/13 01:06:13;;;;;;;48.00;22.02;;;5.70;99.90;;;;;;4995033;28;20160;-84
2022/11/13 01:08:58;;;;;;;48.72;22.38;;;5.70;99.90;;;;;;4994778;28;20046;-82
2022/11/13 01:11:43;;;;;;;41.30;20.90;;;5.70;99.90;;;;;;5000569;28;20049;-83
2022/11/13 01:14:28;;;;;;;45.65;22.80;;;5.70;99.90;;;;;;4995440;28;20049;-83
2022/11/13 01:17:12;;;;;;;39.97;20.45;;;5.70;99.90;;;;;;4995886;28;20499;-81
2022/11/13 01:19:56;;;;;;;43.92;20.15;;;5.60;99.90;;;;;;4995180;28;20045;-83
2022/11/13 01:22:41;;;;;;;45.97;20.85;;;5.60;99.90;;;;;;5002627;28;20037;-83
2022/11/13 01:25:27;;;;;;;42.80;20.77;;;5.60;99.90;;;;;;5015053;28;20052;-84
2022/11/13 01:28:12;;;;;;;47.67;21.33;;;5.60;99.90;;;;;;5004420;28;20045;-84
2022/11/13 01:30:56;;;;;;;46.22;20.33;;;5.60;99.90;;;;;;4994707;28;20436;-83
2022/11/13 01:33:41;;;;;;;47.65;21.02;;;5.60;99.90;;;;;;4995236;28;20045;-86
2022/11/13 01:36:27;;;;;;;46.92;20.33;;;5.60;99.90;;;;;;4997864;28;20048;-84
2022/11/13 01:39:12;;;;;;;43.30;19.35;;;5.50;99.90;;;;;;4995507;28;20049;-84
2022/11/13 01:41:57;;;;;;;43.92;20.65;;;5.60;99.90;;;;;;4994490;28;20049;-84
2022/11/13 01:44:59;;;;;;;43.92;20.25;;;5.50;99.90;;;;;;5000653;28;20503;-84
2022/11/13 01:47:44;;;;;;;46.30;21.98;;;5.50;99.90;;;;;;4998558;28;20045;-84
2022/11/13 01:50:29;;;;;;;39.08;17.85;;;5.50;99.90;;;;;;5001384;28;20049;-83
2022/11/13 01:53:14;;;;;;;42.25;18.30;;;5.50;99.90;;;;;;4995074;28;20042;-84
2022/11/13 01:55:58;;;;;;;39.50;18.63;;;5.50;99.90;;;;;;4986004;28;20053;-83
2022/11/13 01:58:51;;;;;;;44.10;18.27;;;5.50;99.90;;;;;;4994770;28;20045;-82
2022/11/13 02:01:36;;;;;;;44.17;20.52;;;5.50;99.90;;;;;;4986694;28;20053;-83
2022/11/13 02:04:22;;;;;;;42.85;21.55;;;5.40;99.90;;;;;;4995649;28;20053;-86
2022/11/13 02:07:10;;;;;;;49.15;19.95;;;5.50;99.90;;;;;;4994514;28;20057;-86
2022/11/13 02:10:00;;;;;;;36.90;20.77;;;5.50;99.90;;;;;;4994012;28;20384;-85
2022/11/13 02:12:50;;;;;;;43.10;19.35;;;5.50;99.90;;;;;;4994066;28;20388;-81
2022/11/13 02:15:35;;;;;;;48.15;20.90;;;5.40;99.90;;;;;;4994571;28;20065;-84
2022/11/13 02:18:21;;;;;;;43.55;22.48;;;5.40;99.90;;;;;;4996944;28;20050;-84
2022/11/13 02:21:27;;;;;;;46.05;21.05;;;5.40;99.90;;;;;;4993781;28;20045;-85
2022/11/13 02:24:19;;;;;;;43.67;19.23;;;5.30;99.90;;;;;;5006931;28;20045;-86
2022/11/13 02:27:09;;;;;;;42.45;21.40;;;5.30;99.90;;;;;;5009377;28;20061;-84
2022/11/13 02:29:54;;;;;;;43.13;18.90;;;5.30;99.90;;;;;;5012716;28;20053;-81
2022/11/13 02:32:49;;;;;;;37.35;18.50;;;5.30;99.90;;;;;;5018639;28;20025;-84
2022/11/13 02:35:37;;;;;;;71.03;21.05;;;5.30;99.90;;;;;;4999363;28;20055;-86
2022/11/13 02:38:21;;;;;;;46.47;20.08;;;5.30;99.90;;;;;;4994685;28;20037;-86
2022/11/13 02:41:06;;;;;;;50.00;18.83;;;5.20;99.90;;;;;;4994121;28;20076;-85
2022/11/13 02:43:51;;;;;;;43.63;19.30;;;5.30;99.90;;;;;;4993278;28;20045;-84
2022/11/13 02:46:36;;;;;;;50.15;19.92;;;5.20;99.90;;;;;;4993827;28;20053;-79
2022/11/13 02:49:21;;;;;;;49.33;20.08;;;5.30;99.90;;;;;;4993906;28;20042;-79
2022/11/13 02:52:05;;;;;;;47.35;19.02;;;5.20;99.90;;;;;;4992799;28;20046;-80
2022/11/13 02:54:50;;;;;;;66.10;22.17;;;5.20;99.90;;;;;;4992864;28;20061;-80
2022/11/13 02:57:34;;;;;;;40.08;18.92;;;5.20;99.90;;;;;;4999112;28;20069;-79
2022/11/13 03:00:19;;;;;;;49.00;21.15;;;5.20;99.90;;;;;;4993771;28;20045;-80
2022/11/13 03:03:04;;;;;;;51.53;20.38;;;5.20;99.90;;;;;;4992875;28;20057;-80
2022/11/13 03:05:49;;;;;;;51.15;19.55;;;5.20;99.90;;;;;;4992788;28;20049;-80
2022/11/13 03:08:34;;;;;;;53.15;21.13;;;5.20;99.90;;;;;;4993167;28;20045;-80
2022/11/13 03:11:18;;;;;;;57.53;19.65;;;5.20;99.90;;;;;;4985095;28;20041;-80
2022/11/13 03:14:03;;;;;;;53.70;20.65;;;5.20;99.90;;;;;;4992533;28;20053;-81
2022/11/13 03:16:48;;;;;;;63.00;23.02;;;5.20;99.90;;;;;;4998531;28;20041;-81
2022/11/13 03:19:33;;;;;;;60.72;20.15;;;5.20;99.90;;;;;;4985117;28;20061;-81
2022/11/13 03:22:18;;;;;;;40.30;18.73;;;5.10;99.90;;;;;;4998721;28;20522;-80
2022/11/13 03:25:03;;;;;;;51.30;20.10;;;5.10;99.90;;;;;;4991948;28;20053;-80
2022/11/13 03:27:48;;;;;;;48.65;19.65;;;5.10;99.90;;;;;;4984919;28;20049;-80
2022/11/13 03:30:32;;;;;;;74.53;21.52;;;5.10;99.90;;;;;;4993030;28;20396;-80
2022/11/13 03:33:16;;;;;;;49.85;18.10;;;5.10;99.90;;;;;;4992529;28;20399;-80
2022/11/13 03:36:01;;;;;;;60.83;19.90;;;5.00;99.90;;;;;;4992197;28;20400;-80
2022/11/13 03:38:46;;;;;;;53.45;19.92;;;5.10;99.90;;;;;;4998305;28;20061;-80
2022/11/13 03:41:30;;;;;;;54.80;22.50;;;5.10;99.90;;;;;;4998629;28;20396;-83
2022/11/13 03:44:14;;;;;;;56.00;21.67;;;5.10;99.90;;;;;;4992009;28;20045;-80
2022/11/13 03:46:59;;;;;;;57.17;20.65;;;5.10;99.90;;;;;;4991741;28;20435;-85
2022/11/13 03:49:43;;;;;;;73.55;20.95;;;5.10;99.90;;;;;;4999348;28;20065;-83
2022/11/13 03:52:28;;;;;;;41.60;17.85;;;5.00;99.90;;;;;;4984578;28;20042;-84
2022/11/13 03:55:12;;;;;;;53.38;17.92;;;4.90;99.90;;;;;;4991771;28;20042;-85
2022/11/13 03:57:57;;;;;;;61.85;18.45;;;4.90;99.90;;;;;;4997462;28;20053;-83
2022/11/13 04:00:42;;;;;;;36.00;17.85;;;4.80;99.90;;;;;;4992676;28;20053;-83
2022/11/13 04:03:27;;;;;;;47.10;16.10;;;4.80;99.90;;;;;;4992731;28;20057;-85
2022/11/13 04:06:13;;;;;;;49.33;18.80;;;4.90;99.90;;;;;;4991833;28;20068;-84
2022/11/13 04:08:57;;;;;;;56.67;19.02;;;4.90;99.90;;;;;;4999972;28;20065;-83
2022/11/13 04:11:42;;;;;;;52.53;21.60;;;4.90;99.90;;;;;;4994449;28;20045;-86
2022/11/13 04:14:26;;;;;;;36.90;18.55;;;5.00;99.90;;;;;;4992823;28;20045;-84
2022/11/13 04:17:11;;;;;;;69.88;20.65;;;4.90;99.90;;;;;;4983299;28;20484;-85
2022/11/13 04:19:55;;;;;;;57.03;20.83;;;5.00;99.90;;;;;;4991964;28;20041;-82
2022/11/13 04:22:40;;;;;;;45.05;18.63;;;4.90;99.90;;;;;;4992348;28;20085;-85
2022/11/13 04:25:25;;;;;;;50.30;18.85;;;4.90;99.90;;;;;;4992420;28;20045;-85
2022/11/13 04:28:10;;;;;;;66.15;20.90;;;4.90;99.90;;;;;;5002322;28;20118;-88
2022/11/13 04:30:55;;;;;;;70.80;20.80;;;4.90;99.90;;;;;;4981986;28;20057;-81
2022/11/13 04:33:39;;;;;;;67.05;20.95;;;4.90;99.90;;;;;;4985987;28;20066;-88
2022/11/13 04:36:24;;;;;;;56.35;18.25;;;4.80;99.90;;;;;;4979620;28;20050;-87
2022/11/13 04:39:08;;;;;;;39.80;17.83;;;4.80;99.90;;;;;;4969441;28;20053;-87
2022/11/13 04:44:56;;;;;;;43.80;17.70;;;4.70;99.90;;;;;;4977351;28;20050;-82
2022/11/13 04:47:41;;;;;;;61.92;19.88;;;4.80;99.90;;;;;;4993228;28;20057;-86
2022/11/13 04:50:25;;;;;;;56.67;17.67;;;4.70;99.90;;;;;;4993168;28;20049;-85
2022/11/13 04:53:11;;;;;;;74.10;18.15;;;4.60;99.90;;;;;;4978372;28;20042;-83
2022/11/13 04:55:55;;;;;;;60.42;17.23;;;4.40;99.90;;;;;;4968140;28;20070;-81
2022/11/13 04:58:40;;;;;;;70.47;18.55;;;4.40;99.90;;;;;;4968835;28;20054;-86
2022/11/13 05:01:25;;;;;;;100.95;18.92;;;4.30;99.90;;;;;;4976572;28;20054;-86
2022/11/13 05:04:12;;;;;;;50.97;15.27;;;4.30;99.90;;;;;;4975851;28;20046;-85
2022/11/13 05:06:57;;;;;;;66.70;19.05;;;4.30;99.90;;;;;;4975783;28;20058;-82
2022/11/13 05:09:41;;;;;;;43.65;15.40;;;4.30;99.90;;;;;;4976343;28;20038;-86
2022/11/13 05:12:26;;;;;;;52.13;19.52;;;4.30;99.90;;;;;;4981929;28;20050;-86
2022/11/13 05:15:11;;;;;;;63.58;17.13;;;4.30;99.90;;;;;;4975587;28;20042;-87
2022/11/13 05:17:55;;;;;;;40.65;16.08;;;4.30;99.90;;;;;;4965400;28;20073;-82
2022/11/13 05:20:40;;;;;;;43.35;17.52;;;4.30;99.90;;;;;;4967957;28;20096;-83
2022/11/13 05:23:25;;;;;;;55.97;17.77;;;4.30;99.90;;;;;;4967669;28;20065;-85
2022/11/13 05:26:12;;;;;;;39.67;16.17;;;4.30;99.90;;;;;;4975198;28;20503;-83
2022/11/13 05:28:57;;;;;;;43.75;16.52;;;4.20;99.90;;;;;;4975201;28;20050;-81
2022/11/13 05:31:42;;;;;;;50.78;17.10;;;4.30;99.90;;;;;;4976009;28;20053;-86
2022/11/13 05:34:27;;;;;;;38.88;16.90;;;4.30;99.90;;;;;;4976188;28;20050;-86
2022/11/13 05:37:12;;;;;;;44.30;17.20;;;4.30;99.90;;;;;;4975490;28;20054;-87
2022/11/13 05:39:56;;;;;;;78.57;19.63;;;4.30;99.90;;;;;;4975728;28;20054;-83
2022/11/13 05:42:43;;;;;;;50.63;17.63;;;4.30;99.90;;;;;;4961376;28;20492;-87
2022/11/13 05:45:27;;;;;;;56.40;17.83;;;4.30;99.90;;;;;;4967731;28;20515;-87
2022/11/13 05:48:13;;;;;;;42.72;17.25;;;4.30;99.90;;;;;;4963686;28;20050;-85
2022/11/13 05:51:08;;;;;;;47.28;17.30;;;4.30;99.90;;;;;;4977855;28;20046;-83
2022/11/13 05:53:53;;;;;;;46.97;17.40;;;4.30;99.90;;;;;;4968004;28;20046;-87
2022/11/13 05:56:39;;;;;;;77.20;21.20;;;4.30;99.90;;;;;;4975680;28;20053;-86
2022/11/13 05:59:24;;;;;;;57.20;17.95;;;4.20;99.90;;;;;;4967122;28;20046;-84
2022/11/13 06:02:08;;;;;;;60.75;18.88;;;4.20;99.90;;;;;;4974005;28;20400;-82
2022/11/13 06:04:53;;;;;;;48.67;17.70;;;4.20;99.90;;;;;;4975603;28;20037;-87
2022/11/13 06:07:38;;;;;;;62.42;21.15;;;4.20;99.90;;;;;;4976001;28;20052;-86
2022/11/13 06:10:24;;;;;;;59.53;18.13;;;4.20;99.90;;;;;;4975666;28;20053;-84
2022/11/13 06:13:08;;;;;;;76.43;21.80;;;4.10;99.90;;;;;;4975556;28;20408;-87
2022/11/13 06:15:58;;;;;;;52.90;17.75;;;4.10;99.90;;;;;;4976499;28;20397;-85
2022/11/13 06:18:44;;;;;;;62.42;18.30;;;4.10;99.90;;;;;;4976375;28;20037;-86
2022/11/13 06:21:31;;;;;;;47.22;17.15;;;4.10;99.90;;;;;;4967638;28;20404;-84
2022/11/13 06:24:16;;;;;;;49.33;16.65;;;4.10;99.90;;;;;;4966576;28;20045;-84
2022/11/13 06:27:00;;;;;;;53.58;17.83;;;4.10;99.90;;;;;;4974933;28;20045;-82
2022/11/13 06:29:45;;;;;;;44.63;17.95;;;4.10;99.90;;;;;;4965285;28;20062;-83
2022/11/13 06:32:30;;;;;;;55.60;18.27;;;4.20;99.90;;;;;;4975188;28;20392;-86
2022/11/13 06:35:15;;;;;;;77.43;22.05;;;4.20;99.90;;;;;;4966913;28;20049;-86
2022/11/13 06:38:00;;;;;;;78.88;20.83;;;4.20;99.90;;;;;;4985845;28;20054;-83
2022/11/13 06:40:44;;;;;;;66.65;21.55;;;4.00;99.90;;;;;;4984920;28;20050;-85
2022/11/13 06:43:29;;;;;;;56.88;18.75;;;4.00;99.90;;;;;;4991866;28;20025;-83
2022/11/13 06:46:17;;;;;;;78.25;22.83;;;4.00;99.90;;;;;;4990181;28;20053;-83
2022/11/13 06:49:02;;;;;;;83.63;21.08;;;4.00;99.90;;;;;;4982316;28;20050;-82
2022/11/13 06:51:47;;;;;;;74.03;21.35;;;4.00;99.90;;;;;;4966822;28;20050;-87
2022/11/13 06:54:32;;;;;;;46.35;17.88;;;4.00;99.90;;;;;;4976578;28;20046;-83
2022/11/13 06:57:17;;;;;;;75.47;20.85;;;4.00;99.90;;;;;;4973948;28;20054;-85
2022/11/13 07:00:03;;;;;;;58.20;18.60;;;4.00;99.90;;;;;;4966158;28;20519;-81
2022/11/13 07:02:49;;;;;;;66.80;18.98;;;3.90;99.90;;;;;;4973560;28;20046;-81
2022/11/13 07:05:36;;;;;;;114.82;25.90;;;3.90;99.90;;;;;;4973993;28;20050;-81
2022/11/13 07:08:21;;;;;;;62.95;19.02;;;3.90;99.90;;;;;;4973184;28;20054;-80
2022/11/13 07:11:06;;;;;;;61.28;20.55;;;3.90;99.90;;;;;;4978640;28;20053;-78
2022/11/13 07:13:51;;;;;;;59.10;19.35;;;3.90;99.90;;;;;;4990536;28;20408;-83
2022/11/13 07:16:35;;;;;;;43.35;17.13;;;3.90;99.90;;;;;;4991591;28;20041;-80
2022/11/13 07:19:20;;;;;;;61.90;18.73;;;4.00;99.90;;;;;;4992784;28;20382;-80
2022/11/13 07:22:04;;;;;;;74.20;18.63;;;4.10;99.90;;;;;;4992655;28;20050;-77
2022/11/13 07:24:49;;;;;;;50.85;17.50;;;4.10;99.90;;;;;;4992829;28;20044;-82
2022/11/13 07:27:34;;;;;;;57.75;16.73;;;4.00;99.90;;;;;;4992935;28;20065;-83
2022/11/13 07:30:19;;;;;;;62.75;19.52;;;3.90;99.90;;;;;;5001698;28;20052;-81
2022/11/13 07:33:04;;;;;;;41.45;14.93;;;3.90;99.90;;;;;;5012652;28;20053;-79
2022/11/13 07:35:48;;;;;;;66.90;17.35;;;4.00;99.90;;;;;;5008734;28;20061;-85
2022/11/13 07:38:34;;;;;;;57.45;18.40;;;4.00;99.90;;;;;;4992663;28;20050;-85
2022/11/13 07:41:19;;;;;;;42.75;17.25;;;4.10;99.90;;;;;;4991758;28;20049;-84
2022/11/13 07:44:03;;;;;;;58.53;19.17;;;4.20;99.90;;;;;;4992853;28;20384;-79
2022/11/13 07:46:48;;;;;;;103.93;24.08;;;4.30;99.90;;;;;;4995168;28;20057;-84
2022/11/13 07:49:32;;;;;;;58.42;22.48;;;4.20;99.90;;;;;;5018045;28;20049;-84
2022/11/13 07:52:17;;;;;;;80.00;38.47;;;4.20;99.90;;;;;;5008449;28;20049;-86
2022/11/13 07:55:01;;;;;;;58.08;21.52;;;4.10;99.90;;;;;;5010295;28;20041;-87
2022/11/13 07:57:46;;;;;;;64.72;19.65;;;4.20;99.90;;;;;;5011221;28;20052;-86
2022/11/13 08:00:33;;;;;;;95.95;19.63;;;4.20;99.90;;;;;;5011907;28;20040;-84
2022/11/13 08:03:18;;;;;;;88.13;20.08;;;4.10;99.90;;;;;;5018307;28;20053;-86
2022/11/13 08:06:06;;;;;;;58.40;18.27;;;4.10;99.90;;;;;;5011859;28;20033;-84
2022/11/13 08:08:51;;;;;;;69.47;17.30;;;4.10;99.90;;;;;;5004468;28;20045;-85
2022/11/13 08:11:35;;;;;;;57.42;15.30;;;4.20;99.90;;;;;;5013599;28;20045;-85
2022/11/13 08:14:20;;;;;;;60.08;18.80;;;4.30;99.90;;;;;;5034960;28;20044;-83
2022/11/13 08:17:05;;;;;;;45.65;19.08;;;4.40;99.90;;;;;;5033844;28;20048;-78
2022/11/13 08:19:49;;;;;;;57.25;25.38;;;4.40;99.90;;;;;;5012545;28;20395;-86
2022/11/13 08:22:34;;;;;;;76.22;23.73;;;4.40;99.90;;;;;;5012164;28;20052;-87
2022/11/13 08:25:18;;;;;;;51.03;24.48;;;4.50;99.90;;;;;;5013918;28;20041;-86
2022/11/13 08:28:03;;;;;;;29.85;14.18;;;4.30;99.90;;;;;;5012316;28;20627;-88
2022/11/13 08:30:47;;;;;;;23.77;12.85;;;4.30;99.90;;;;;;5012426;28;20053;-87
2022/11/13 08:33:33;;;;;;;33.78;16.27;;;4.20;99.90;;;;;;5011885;28;20045;-87
2022/11/13 08:36:17;;;;;;;44.85;29.17;;;4.30;99.90;;;;;;5011869;28;20045;-86
2022/11/13 08:39:02;;;;;;;38.22;18.60;;;4.40;99.90;;;;;;5012274;28;20045;-87
2022/11/13 08:41:46;;;;;;;47.08;14.82;;;4.40;99.90;;;;;;5016652;28;20049;-85
2022/11/13 08:44:31;;;;;;;46.90;17.55;;;4.30;99.90;;;;;;5010781;28;20041;-86
2022/11/13 08:47:15;;;;;;;52.72;16.05;;;4.30;99.90;;;;;;5010637;28;20057;-86
2022/11/13 08:50:00;;;;;;;52.60;16.77;;;4.40;99.90;;;;;;5011636;28;20045;-85
2022/11/13 08:52:46;;;;;;;44.97;15.45;;;4.40;99.90;;;;;;5011943;28;20049;-86
2022/11/13 08:55:32;;;;;;;28.63;14.75;;;4.40;99.90;;;;;;5002613;28;20037;-84
2022/11/13 08:58:17;;;;;;;47.22;17.05;;;4.50;99.90;;;;;;5010816;28;20045;-83
2022/11/13 09:01:03;;;;;;;37.13;14.52;;;4.50;99.90;;;;;;5011610;28;20045;-83
2022/11/13 09:03:48;;;;;;;32.75;14.68;;;4.50;99.90;;;;;;4996937;28;20049;-85
2022/11/13 09:06:33;;;;;;;31.60;14.77;;;4.70;99.90;;;;;;5010897;28;20048;-83
2022/11/13 09:09:19;;;;;;;55.55;16.63;;;4.70;99.90;;;;;;5010966;28;20048;-83
2022/11/13 09:12:04;;;;;;;37.72;14.68;;;4.70;99.90;;;;;;5003659;28;20048;-83
2022/11/13 09:14:49;;;;;;;33.47;16.42;;;4.70;99.90;;;;;;5012537;28;20506;-83
2022/11/13 09:17:34;;;;;;;40.75;15.43;;;4.80;99.90;;;;;;5010857;28;20065;-83
2022/11/13 09:20:18;;;;;;;25.60;13.60;;;4.90;99.90;;;;;;5013741;28;20045;-83
2022/11/13 09:23:08;;;;;;;28.25;13.18;;;4.90;99.90;;;;;;5015007;28;20045;-84
2022/11/13 09:25:53;;;;;;;31.50;14.18;;;4.90;99.90;;;;;;5014957;28;20391;-83
2022/11/13 09:28:37;;;;;;;31.80;13.63;;;5.00;99.90;;;;;;5014639;28;20045;-84
2022/11/13 09:31:22;;;;;;;22.27;12.85;;;5.00;99.90;;;;;;5013810;28;20061;-81
2022/11/13 09:34:07;;;;;;;42.25;16.73;;;5.00;99.90;;;;;;5014756;28;20100;-85
2022/11/13 09:36:53;;;;;;;24.70;13.18;;;5.10;99.90;;;;;;5014657;28;20052;-85
2022/11/13 09:39:37;;;;;;;23.33;14.75;;;5.00;99.90;;;;;;5020983;28;20041;-84
2022/11/13 09:42:26;;;;;;;25.38;12.00;;;5.10;99.90;;;;;;5014172;28;20057;-85
2022/11/13 09:45:13;;;;;;;28.27;12.75;;;4.90;99.90;;;;;;5006525;28;20419;-80
2022/11/13 09:48:15;;;;;;;23.98;13.00;;;4.70;99.90;;;;;;5000928;28;20077;-87
2022/11/13 09:51:03;;;;;;;51.92;14.23;;;4.80;99.90;;;;;;5014972;28;20417;-84
2022/11/13 09:53:48;;;;;;;69.20;20.00;;;4.90;99.90;;;;;;5014562;28;20036;-81
2022/11/13 09:56:39;;;;;;;25.13;13.25;;;4.80;99.90;;;;;;5020353;28;20121;-82
2022/11/13 09:59:36;;;;;;;25.83;13.98;;;5.00;99.90;;;;;;5013696;28;20121;-82
2022/11/13 10:02:43;;;;;;;44.78;14.80;;;5.00;99.90;;;;;;5013554;28;20041;-83
2022/11/13 10:05:53;;;;;;;25.50;14.77;;;5.10;99.90;;;;;;5013658;28;20048;-84
2022/11/13 10:08:54;;;;;;;27.90;15.25;;;5.40;99.90;;;;;;5005727;28;20065;-84
2022/11/13 10:11:54;;;;;;;24.83;15.63;;;5.60;99.90;;;;;;5013643;28;20045;-82
2022/11/13 10:14:45;;;;;;;29.15;14.52;;;5.60;99.90;;;;;;5013865;28;20044;-84
2022/11/13 10:17:38;;;;;;;22.83;14.90;;;5.60;99.90;;;;;;5018662;28;20058;-82
2022/11/13 10:20:45;;;;;;;26.33;14.98;;;5.70;99.90;;;;;;5013108;28;20045;-81
2022/11/13 10:23:33;;;;;;;21.08;14.63;;;5.70;99.90;;;;;;5013131;28;20403;-80
2022/11/13 10:26:20;;;;;;;46.47;15.60;;;5.80;99.90;;;;;;5012778;28;20510;-81
2022/11/13 10:29:13;;;;;;;23.73;13.95;;;5.70;99.90;;;;;;5005621;28;20045;-82
2022/11/13 10:31:58;;;;;;;24.15;16.08;;;5.70;99.90;;;;;;5013824;28;20061;-82
2022/11/13 10:34:48;;;;;;;27.70;17.38;;;5.70;99.90;;;;;;5013824;28;20053;-82
2022/11/13 10:37:57;;;;;;;26.92;16.30;;;5.90;99.90;;;;;;5014006;28;20060;-84
2022/11/13 10:40:41;;;;;;;24.52;15.27;;;6.10;99.90;;;;;;5013444;28;20049;-82
2022/11/13 10:43:26;;;;;;;27.35;19.40;;;6.00;99.90;;;;;;5012307;28;20052;-83
2022/11/13 10:46:19;;;;;;;23.60;16.60;;;6.10;99.90;;;;;;4998598;28;20668;-83
2022/11/13 10:49:19;;;;;;;20.23;13.85;;;6.10;99.90;;;;;;5017389;28;20435;-81
2022/11/13 10:52:17;;;;;;;22.80;14.38;;;6.30;99.90;;;;;;5008554;28;20068;-82
2022/11/13 10:55:34;;;;;;;18.52;13.63;;;6.40;99.90;;;;;;5037373;28;20032;-79
2022/11/13 10:58:19;;;;;;;25.42;15.55;;;6.60;99.90;;;;;;5026237;28;20048;-81
2022/11/13 11:01:20;;;;;;;17.67;13.95;;;6.70;99.90;;;;;;5016823;28;20036;-81
2022/11/13 11:04:09;;;;;;;18.63;13.32;;;6.60;99.90;;;;;;5016532;28;20053;-83
2022/11/13 11:07:03;;;;;;;18.05;12.05;;;6.50;99.90;;;;;;5011361;28;20082;-83
2022/11/13 11:09:50;;;;;;;17.52;12.13;;;6.70;99.90;;;;;;5013146;28;20049;-82
2022/11/13 11:12:34;;;;;;;14.52;12.20;;;6.90;99.90;;;;;;5012268;28;20049;-76
2022/11/13 11:16:05;;;;;;;15.50;11.13;;;6.80;99.90;;;;;;5012322;28;20057;-78
2022/11/13 11:18:58;;;;;;;14.27;11.27;;;6.80;99.90;;;;;;5015364;28;20052;-84
2022/11/13 11:21:44;;;;;;;13.25;10.10;;;6.90;99.90;;;;;;5012693;28;20049;-82
2022/11/13 11:24:41;;;;;;;14.18;10.90;;;7.00;99.90;;;;;;5012361;28;20049;-80
2022/11/13 11:27:36;;;;;;;14.75;10.30;;;7.00;99.90;;;;;;5012149;28;20053;-83
2022/11/13 11:30:23;;;;;;;13.35;10.90;;;7.20;99.90;;;;;;5011790;28;20057;-78
2022/11/13 11:33:19;;;;;;;17.25;10.23;;;7.30;99.90;;;;;;5013863;28;20403;-82
2022/11/13 11:36:03;;;;;;;13.18;9.73;;;7.60;99.90;;;;;;5012690;28;20044;-80
2022/11/13 11:38:53;;;;;;;12.25;9.23;;;7.50;99.90;;;;;;5031220;28;20040;-82
2022/11/13 11:41:59;;;;;;;10.75;8.60;;;7.70;99.90;;;;;;5005722;28;20498;-75
2022/11/13 11:44:48;;;;;;;13.07;9.48;;;7.70;99.90;;;;;;5003521;28;20070;-76
2022/11/13 11:47:32;;;;;;;11.65;9.35;;;7.60;99.90;;;;;;5010119;28;21505;-76
2022/11/13 11:50:47;;;;;;;14.27;10.07;;;7.80;99.90;;;;;;5009288;28;20391;-76
2022/11/13 11:53:50;;;;;;;10.50;8.32;;;8.00;99.90;;;;;;5016624;28;20089;-75
2022/11/13 11:56:42;;;;;;;11.48;9.13;;;7.90;99.90;;;;;;5003240;28;20064;-76
2022/11/13 11:59:46;;;;;;;11.52;9.02;;;7.80;99.90;;;;;;5003241;28;20044;-74
2022/11/13 12:02:43;;;;;;;10.50;8.90;;;7.90;99.90;;;;;;5011362;28;20045;-75
2022/11/13 12:05:50;;;;;;;13.02;9.73;;;7.90;99.90;;;;;;5011637;28;20387;-82
2022/11/13 12:09:30;;;;;;;10.82;8.05;;;8.10;99.90;;;;;;5011177;28;20053;-84
2022/11/13 12:12:18;;;;;;;10.47;7.70;;;8.00;99.90;;;;;;4957350;28;20049;-83
2022/11/13 12:15:11;;;;;;;13.00;9.98;;;8.20;99.90;;;;;;5003921;28;20045;-82
2022/11/13 12:17:56;;;;;;;9.77;8.02;;;8.30;99.90;;;;;;5012005;28;20057;-83
2022/11/13 12:20:55;;;;;;;10.88;8.20;;;8.40;99.90;;;;;;5011277;28;20360;-82
2022/11/13 12:24:04;;;;;;;12.45;8.55;;;8.40;99.90;;;;;;5011260;28;20125;-82
2022/11/13 12:27:10;;;;;;;11.10;8.48;;;8.20;99.90;;;;;;5011940;28;20045;-82
2022/11/13 12:30:03;;;;;;;12.57;8.50;;;8.30;99.90;;;;;;5001239;28;20061;-82
2022/11/13 12:33:05;;;;;;;10.40;8.35;;;8.50;99.90;;;;;;5003398;28;20045;-82
2022/11/13 12:35:52;;;;;;;11.00;8.55;;;8.70;99.90;;;;;;4997138;28;20506;-83
2022/11/13 12:39:21;;;;;;;11.98;8.93;;;8.90;99.90;;;;;;5011138;28;20525;-84
2022/11/13 12:42:29;;;;;;;9.95;7.40;;;9.10;99.90;;;;;;5012070;28;20415;-84
2022/11/13 12:45:35;;;;;;;12.23;8.60;;;9.20;99.90;;;;;;5013491;28;20506;-84
2022/11/13 12:48:26;;;;;;;10.98;8.45;;;9.50;99.90;;;;;;5013493;28;20056;-84
2022/11/13 12:51:17;;;;;;;10.40;7.95;;;9.60;99.90;;;;;;5017252;28;20510;-84
2022/11/13 12:54:01;;;;;;;9.90;7.88;;;9.80;99.90;;;;;;5015743;28;20064;-83
2022/11/13 12:56:46;;;;;;;8.77;7.03;;;10.00;99.90;;;;;;5015834;28;20034;-83
2022/11/13 12:59:38;;;;;;;10.15;7.57;;;10.20;99.90;;;;;;5021571;28;20057;-84
2022/11/13 13:02:42;;;;;;;10.65;9.02;;;10.40;99.90;;;;;;5015320;28;20064;-82
2022/11/13 13:05:32;;;;;;;10.82;7.25;;;10.50;99.90;;;;;;5014356;28;20041;-83
2022/11/13 13:08:44;;;;;;;10.20;8.48;;;10.60;99.90;;;;;;5015779;28;20045;-82
2022/11/13 13:11:37;;;;;;;11.40;8.38;;;10.80;99.90;;;;;;5014485;28;20049;-82
2022/11/13 13:14:28;;;;;;;10.15;7.80;;;10.90;99.90;;;;;;5014940;28;20041;-82
2022/11/13 13:17:12;;;;;;;10.82;6.97;;;11.00;99.90;;;;;;5015029;28;20041;-84
2022/11/13 13:20:20;;;;;;;10.07;7.50;;;11.10;99.90;;;;;;5014719;28;20057;-84
2022/11/13 13:23:09;;;;;;;9.77;7.43;;;11.10;99.90;;;;;;5015178;28;20052;-83
2022/11/13 13:26:13;;;;;;;10.27;8.23;;;11.00;99.90;;;;;;5015057;28;20049;-83
2022/11/13 13:29:17;;;;;;;9.88;7.78;;;11.00;99.90;;;;;;5020956;28;20049;-83
2022/11/13 13:32:05;;;;;;;8.68;7.05;;;11.10;99.90;;;;;;5014899;28;20052;-83
2022/11/13 13:35:18;;;;;;;9.30;6.97;;;11.30;99.90;;;;;;5014264;28;20057;-84
2022/11/13 13:38:36;;;;;;;9.48;6.70;;;11.40;97.50;;;;;;5006541;28;20049;-83
2022/11/13 13:41:43;;;;;;;8.40;7.10;;;11.50;97.80;;;;;;5015587;28;20045;-83
2022/11/13 13:44:31;;;;;;;10.85;6.90;;;11.60;96.80;;;;;;5014394;28;20502;-83
2022/11/13 13:47:37;;;;;;;9.60;7.03;;;11.70;96.00;;;;;;5014563;28;20056;-82
2022/11/13 13:50:29;;;;;;;13.73;8.63;;;11.80;95.20;;;;;;5006521;28;20071;-83
2022/11/13 13:53:19;;;;;;;10.32;6.30;;;12.00;94.80;;;;;;5014544;28;20049;-83
2022/11/13 13:56:10;;;;;;;10.30;5.97;;;12.10;91.80;;;;;;5021233;28;20506;-77
2022/11/13 13:58:54;;;;;;;7.65;4.65;;;12.10;91.70;;;;;;5014716;28;20044;-81
2022/11/13 14:01:39;;;;;;;8.48;4.85;;;12.10;82.50;;;;;;5013537;28;20045;-81
2022/11/13 14:04:32;;;;;;;8.48;4.45;;;12.20;78.20;;;;;;5013533;28;20490;-82
2022/11/13 14:07:18;;;;;;;5.07;4.13;;;12.30;68.40;;;;;;5013369;28;20049;-83
2022/11/13 14:10:15;;;;;;;6.70;3.85;;;12.40;66.90;;;;;;5014006;28;20041;-83
2022/11/13 14:13:01;;;;;;;6.18;4.03;;;12.50;68.50;;;;;;5005399;28;20420;-83
2022/11/13 14:15:46;;;;;;;5.03;2.80;;;12.50;62.40;;;;;;5013824;28;20049;-83
2022/11/13 14:18:31;;;;;;;7.40;6.70;;;12.60;52.70;;;;;;5001971;28;20049;-83
2022/11/13 14:21:23;;;;;;;6.15;3.58;;;12.50;57.30;;;;;;5014711;28;20045;-82
2022/11/13 14:24:32;;;;;;;5.07;3.50;;;12.60;48.50;;;;;;5013786;28;20036;-83
2022/11/13 14:27:24;;;;;;;4.30;3.15;;;12.60;50.10;;;;;;5020565;28;20048;-81
2022/11/13 14:30:25;;;;;;;5.40;2.50;;;12.70;40.60;;;;;;5013973;28;20057;-83